Time;durP1;ratioP1;P1;durP2;ratioP2;P2;SDS_P1;SDS_P2;PMS_P1;PMS_P2;Temp;Humidity;BMP_temperature;BMP_pressure;BME280_temperature;BME280_humidity;BME280_pressure;Samples;Min_cycle;Max_cycle;Signal;HPM_P1;HPM_P2
2023/03/24 00:01:23;;;;;;;7.70;2.35;;;;;;;10.88;100.00;99703.53;5049407;28;20118;-50
2023/03/24 00:03:51;;;;;;;7.18;2.53;;;;;;;10.83;100.00;99701.31;5054042;28;20071;-52
2023/03/24 00:06:22;;;;;;;6.78;2.78;;;;;;;10.84;100.00;99702.97;5054193;28;20041;-53
2023/03/24 00:08:51;;;;;;;7.25;2.95;;;;;;;10.84;100.00;99695.09;5057291;28;20049;-48
2023/03/24 00:11:20;;;;;;;6.78;2.58;;;;;;;10.87;100.00;99686.94;5056386;28;20045;-51
2023/03/24 00:13:49;;;;;;;9.23;2.60;;;;;;;10.86;100.00;99682.63;5052471;28;20049;-53
2023/03/24 00:16:20;;;;;;;9.63;2.70;;;;;;;10.82;100.00;99684.69;5053660;28;20052;-49
2023/03/24 00:18:51;;;;;;;7.82;2.53;;;;;;;10.89;100.00;99678.91;5061477;28;20111;-49
2023/03/24 00:21:24;;;;;;;6.50;2.60;;;;;;;10.82;100.00;99679.44;5062764;28;20071;-50
2023/03/24 00:23:54;;;;;;;7.15;2.90;;;;;;;10.82;100.00;99663.66;5057100;28;20450;-47
2023/03/24 00:26:23;;;;;;;9.48;2.72;;;;;;;10.87;100.00;99676.41;5064351;28;20121;-49
2023/03/24 00:28:53;;;;;;;8.15;2.90;;;;;;;10.90;100.00;99660.34;5086225;28;20425;-51
2023/03/24 00:31:24;;;;;;;8.30;2.95;;;;;;;10.83;100.00;99654.78;5095711;28;20116;-52
2023/03/24 00:33:53;;;;;;;5.50;2.67;;;;;;;10.88;100.00;99658.81;5074389;28;20427;-48
2023/03/24 00:36:24;;;;;;;7.53;2.85;;;;;;;10.89;100.00;99663.94;5072822;28;20044;-48
2023/03/24 00:38:53;;;;;;;6.45;2.80;;;;;;;10.84;100.00;99650.38;5060983;28;20051;-50
2023/03/24 00:41:25;;;;;;;8.82;3.20;;;;;;;10.83;100.00;99646.91;5074152;28;20048;-48
2023/03/24 00:43:57;;;;;;;7.63;3.30;;;;;;;10.83;100.00;99643.44;5074511;28;20080;-48
2023/03/24 00:46:28;;;;;;;8.88;2.85;;;;;;;10.83;100.00;99646.06;5061820;28;20418;-50
2023/03/24 00:49:01;;;;;;;8.02;3.40;;;;;;;10.86;100.00;99640.53;5068020;28;20522;-47
2023/03/24 00:51:34;;;;;;;8.75;3.33;;;;;;;10.90;100.00;99630.59;5072529;28;20059;-51
2023/03/24 00:54:03;;;;;;;7.03;2.88;;;;;;;10.90;100.00;99625.34;5065181;28;20504;-50
2023/03/24 00:56:33;;;;;;;9.32;3.13;;;;;;;10.91;100.00;99629.66;5050970;28;20110;-52
2023/03/24 00:59:02;;;;;;;9.02;3.20;;;;;;;10.91;100.00;99622.56;5058023;28;20045;-49
2023/03/24 01:01:33;;;;;;;5.53;2.75;;;;;;;10.95;100.00;99623.16;5054965;28;21770;-49
2023/03/24 01:04:04;;;;;;;5.75;2.55;;;;;;;10.96;100.00;99616.91;5056196;28;20368;-48
2023/03/24 01:06:36;;;;;;;6.53;2.97;;;;;;;10.94;100.00;99610.97;5056578;28;20146;-47
2023/03/24 01:09:05;;;;;;;7.28;2.90;;;;;;;10.95;100.00;99605.56;5060968;28;20058;-52
2023/03/24 01:11:38;;;;;;;6.85;3.13;;;;;;;10.95;100.00;99608.19;5053970;28;20072;-50
2023/03/24 01:14:07;;;;;;;7.07;3.13;;;;;;;10.95;100.00;99599.47;5055609;28;20503;-51
2023/03/24 01:16:35;;;;;;;10.98;3.33;;;;;;;10.92;100.00;99600.56;5068718;28;20040;-50
2023/03/24 01:19:05;;;;;;;7.72;3.42;;;;;;;10.94;100.00;99589.91;5051873;28;20547;-50
2023/03/24 01:21:35;;;;;;;6.82;3.00;;;;;;;10.95;100.00;99584.53;5063247;28;20050;-51
2023/03/24 01:24:05;;;;;;;6.15;3.45;;;;;;;10.96;100.00;99583.56;5062047;28;20071;-50
2023/03/24 01:26:33;;;;;;;6.60;3.22;;;;;;;10.97;100.00;99581.75;5059962;28;20048;-52
2023/03/24 01:29:04;;;;;;;8.27;3.83;;;;;;;10.98;100.00;99572.91;5066051;28;20553;-51
2023/03/24 01:31:33;;;;;;;7.53;3.60;;;;;;;10.99;100.00;99578.03;5070646;28;20105;-50
2023/03/24 01:34:02;;;;;;;5.90;2.97;;;;;;;11.07;100.00;99564.22;5074399;28;20499;-50
2023/03/24 01:36:30;;;;;;;6.03;3.00;;;;;;;11.08;100.00;99555.34;5074995;28;20052;-53
2023/03/24 01:39:03;;;;;;;5.68;2.80;;;;;;;11.05;100.00;99555.59;5074652;28;20070;-49
2023/03/24 01:41:34;;;;;;;7.55;3.08;;;;;;;11.06;100.00;99545.94;5074366;28;20036;-51
2023/03/24 01:44:27;;;;;;;5.90;2.90;;;;;;;11.03;100.00;99541.78;5063800;28;20044;-50
2023/03/24 01:46:56;;;;;;;5.65;2.90;;;;;;;11.07;100.00;99540.53;5066531;28;20048;-54
2023/03/24 01:49:27;;;;;;;6.72;2.97;;;;;;;11.12;100.00;99543.56;5070242;28;20060;-53
2023/03/24 01:51:59;;;;;;;7.68;3.10;;;;;;;11.09;100.00;99538.59;5056239;28;20033;-53
2023/03/24 01:54:33;;;;;;;8.03;3.10;;;;;;;11.10;100.00;99540.25;5064185;28;20625;-52
2023/03/24 01:57:08;;;;;;;6.75;3.03;;;;;;;11.09;100.00;99535.13;5058935;28;20477;-49
2023/03/24 01:59:40;;;;;;;6.20;2.83;;;;;;;11.11;100.00;99541.06;5058988;28;20057;-52
2023/03/24 02:02:12;;;;;;;6.25;2.90;;;;;;;11.09;100.00;99527.25;5058289;28;20053;-50
2023/03/24 02:04:44;;;;;;;6.32;3.35;;;;;;;11.11;100.00;99531.41;5054531;28;20049;-51
2023/03/24 02:07:18;;;;;;;8.80;3.10;;;;;;;11.09;100.00;99520.16;5054276;28;20041;-53
2023/03/24 02:09:48;;;;;;;7.05;2.97;;;;;;;11.13;100.00;99520.75;5060326;28;20033;-52
2023/03/24 02:12:17;;;;;;;5.35;2.83;;;;;;;11.12;100.00;99506.72;5051421;28;20459;-54
2023/03/24 02:14:45;;;;;;;5.82;2.90;;;;;;;11.17;100.00;99508.97;5050838;28;20484;-53
2023/03/24 02:17:28;;;;;;;5.57;2.95;;;;;;;11.12;100.00;99508.53;5050026;28;20045;-53
2023/03/24 02:20:28;;;;;;;6.65;3.05;;;;;;;11.14;100.00;99509.25;5049988;28;20127;-52
2023/03/24 02:23:21;;;;;;;9.52;3.08;;;;;;;11.15;100.00;99503.00;5051695;28;20056;-51
2023/03/24 02:26:21;;;;;;;4.85;2.63;;;;;;;11.13;100.00;99495.25;5053679;28;20091;-51
2023/03/24 02:29:02;;;;;;;8.55;3.60;;;;;;;11.12;100.00;99493.56;5053394;28;20049;-51
2023/03/24 02:31:54;;;;;;;5.85;2.47;;;;;;;11.16;100.00;99494.97;5053626;28;20480;-51
2023/03/24 02:35:09;;;;;;;6.88;3.08;;;;;;;11.14;100.00;99493.47;5053265;28;20060;-49
2023/03/24 02:38:15;;;;;;;6.15;3.15;;;;;;;11.22;100.00;99495.41;5053300;28;20102;-51
2023/03/24 02:40:48;;;;;;;5.82;3.20;;;;;;;11.16;100.00;99488.88;5038053;28;20057;-49
2023/03/24 02:43:26;;;;;;;10.15;3.30;;;;;;;11.13;100.00;99487.34;5050206;28;20108;-53
2023/03/24 02:46:11;;;;;;;8.55;3.15;;;;;;;11.16;100.00;99499.41;5053061;28;20049;-49
2023/03/24 02:48:50;;;;;;;7.60;3.45;;;;;;;11.14;100.00;99485.56;5053098;28;20045;-52
2023/03/24 02:51:27;;;;;;;7.57;3.63;;;;;;;11.13;100.00;99489.16;5049779;28;20049;-51
2023/03/24 02:54:07;;;;;;;6.10;3.00;;;;;;;11.12;100.00;99490.94;5050262;28;20053;-49
2023/03/24 02:56:42;;;;;;;6.88;3.17;;;;;;;11.18;100.00;99500.13;5053054;28;20231;-50
2023/03/24 02:59:18;;;;;;;6.85;3.13;;;;;;;11.21;100.00;99498.97;5050326;28;20048;-49
2023/03/24 03:01:56;;;;;;;5.97;3.00;;;;;;;11.18;100.00;99486.97;5048228;28;20049;-51
2023/03/24 03:04:31;;;;;;;6.85;3.28;;;;;;;11.15;100.00;99479.31;5051509;28;20052;-48
2023/03/24 03:07:05;;;;;;;6.10;3.00;;;;;;;11.16;100.00;99481.00;5048793;28;20049;-50
2023/03/24 03:09:36;;;;;;;6.65;3.42;;;;;;;11.20;100.00;99492.91;5051744;28;20037;-49
2023/03/24 03:12:09;;;;;;;7.18;3.42;;;;;;;11.22;100.00;99496.25;5049247;28;20055;-51
2023/03/24 03:14:41;;;;;;;6.43;3.05;;;;;;;11.20;100.00;99500.78;5049270;28;20440;-50
2023/03/24 03:17:14;;;;;;;5.72;3.08;;;;;;;11.25;100.00;99511.75;5048715;28;20052;-52
2023/03/24 03:19:49;;;;;;;6.50;3.40;;;;;;;11.25;100.00;99530.16;5050236;28;20051;-53
2023/03/24 03:22:22;;;;;;;5.50;2.90;;;;;;;11.22;100.00;99546.25;5048516;28;20049;-48
2023/03/24 03:24:55;;;;;;;3.10;1.88;;;;;;;11.21;100.00;99562.16;5049625;28;20056;-50
2023/03/24 03:27:30;;;;;;;4.43;1.75;;;;;;;11.16;100.00;99573.09;5052453;28;20432;-48
2023/03/24 03:30:02;;;;;;;4.30;1.98;;;;;;;11.14;100.00;99577.66;5052297;28;20040;-49
2023/03/24 03:32:33;;;;;;;3.33;1.42;;;;;;;11.13;100.00;99591.78;5052497;28;20052;-53
2023/03/24 03:35:08;;;;;;;3.95;1.30;;;;;;;11.05;100.00;99583.72;5048423;28;20053;-50
2023/03/24 03:37:45;;;;;;;3.40;1.23;;;;;;;10.92;100.00;99584.78;5049293;28;20504;-57
2023/03/24 03:40:20;;;;;;;2.03;1.05;;;;;;;10.82;100.00;99590.03;5050060;28;20049;-57
2023/03/24 03:42:50;;;;;;;2.65;1.00;;;;;;;10.83;100.00;99596.94;5048643;28;20061;-58
2023/03/24 03:45:18;;;;;;;3.25;1.10;;;;;;;10.76;100.00;99601.06;5051352;28;20060;-58
2023/03/24 03:47:48;;;;;;;1.75;0.90;;;;;;;10.68;100.00;99606.13;5045470;28;20056;-58
2023/03/24 03:50:16;;;;;;;3.38;0.90;;;;;;;10.68;100.00;99592.16;5049964;28;20407;-58
2023/03/24 03:52:45;;;;;;;2.70;1.20;;;;;;;10.68;100.00;99613.19;5051891;28;20112;-57
2023/03/24 03:55:13;;;;;;;4.57;1.10;;;;;;;10.58;100.00;99610.50;5052038;28;20041;-57
2023/03/24 03:57:42;;;;;;;4.80;1.02;;;;;;;10.55;100.00;99635.28;5048455;28;20041;-50
2023/03/24 04:00:16;;;;;;;6.30;1.20;;;;;;;10.48;100.00;99640.22;5049139;28;20041;-48
2023/03/24 04:02:55;;;;;;;3.60;1.30;;;;;;;10.36;100.00;99654.38;5047607;28;20524;-49
2023/03/24 04:05:33;;;;;;;9.70;1.35;;;;;;;10.33;100.00;99662.47;5047932;28;20566;-51
2023/03/24 04:08:12;;;;;;;8.65;1.33;;;;;;;10.33;100.00;99657.22;5047995;28;20260;-48
2023/03/24 04:11:06;;;;;;;5.43;1.35;;;;;;;10.28;100.00;99670.75;5053166;28;20124;-49
2023/03/24 04:13:44;;;;;;;3.22;0.90;;;;;;;10.21;100.00;99669.59;5067658;28;20080;-47
2023/03/24 04:16:17;;;;;;;3.03;0.90;;;;;;;10.12;100.00;99678.22;5051690;28;20064;-49
2023/03/24 04:19:05;;;;;;;6.57;1.65;;;;;;;9.98;100.00;99680.16;5052037;28;20437;-49
2023/03/24 04:21:53;;;;;;;3.90;0.90;;;;;;;9.94;100.00;99688.44;5050709;28;20043;-49
2023/03/24 04:24:36;;;;;;;7.53;1.50;;;;;;;9.93;100.00;99692.84;5048245;28;20094;-48
2023/03/24 04:27:13;;;;;;;8.70;1.63;;;;;;;9.86;100.00;99706.56;5050960;28;20082;-48
2023/03/24 04:29:52;;;;;;;5.10;1.17;;;;;;;9.78;100.00;99694.06;5048632;28;20081;-48
2023/03/24 04:32:31;;;;;;;9.95;2.15;;;;;;;9.69;100.00;99714.00;5049627;28;20045;-48
2023/03/24 04:35:04;;;;;;;6.90;1.88;;;;;;;9.62;100.00;99718.91;5048725;28;20053;-49
2023/03/24 04:37:36;;;;;;;9.07;2.63;;;;;;;9.69;100.00;99721.06;5047948;28;20412;-47
2023/03/24 04:40:07;;;;;;;;;;;;;;;9.70;100.00;99722.75;5048717;28;20056;-47
2023/03/24 04:42:38;;;;;;;10.23;1.65;;;;;;;9.60;100.00;99741.84;5050074;28;20380;-48
2023/03/24 04:45:08;;;;;;;11.32;1.45;;;;;;;9.58;100.00;99741.09;5050900;28;20075;-48
2023/03/24 04:47:42;;;;;;;11.23;1.80;;;;;;;9.61;100.00;99758.41;5050811;28;20044;-50
2023/03/24 04:50:13;;;;;;;14.77;2.45;;;;;;;9.62;100.00;99762.72;5051315;28;20052;-46
2023/03/24 04:52:42;;;;;;;13.35;2.10;;;;;;;9.53;100.00;99753.78;5051412;28;20132;-51
2023/03/24 04:55:37;;;;;;;9.80;2.08;;;;;;;9.62;100.00;99754.84;5049780;28;20052;-48
2023/03/24 04:58:05;;;;;;;8.40;1.95;;;;;;;9.53;100.00;99764.28;5047560;28;20111;-49
2023/03/24 05:00:35;;;;;;;15.48;2.67;;;;;;;9.52;100.00;99767.03;5054893;28;20075;-51
2023/03/24 05:03:05;;;;;;;11.50;2.38;;;;;;;9.54;100.00;99779.03;5053313;28;20084;-47
2023/03/24 05:05:35;;;;;;;13.63;2.20;;;;;;;9.48;100.00;99776.91;5051298;28;20048;-51
2023/03/24 05:08:03;;;;;;;10.27;2.47;;;;;;;9.47;100.00;99780.47;5051223;28;20098;-49
2023/03/24 05:10:32;;;;;;;12.05;2.50;;;;;;;9.41;100.00;99784.44;5051793;28;20192;-50
2023/03/24 05:13:00;;;;;;;13.00;2.28;;;;;;;9.41;100.00;99776.56;5051214;28;20053;-56
2023/03/24 05:15:31;;;;;;;12.15;2.75;;;;;;;9.37;100.00;99774.28;5052011;28;20475;-58
2023/03/24 05:17:59;;;;;;;15.40;2.33;;;;;;;9.35;100.00;99777.00;5052751;28;20086;-57
2023/03/24 05:20:29;;;;;;;8.95;2.25;;;;;;;9.29;100.00;99788.00;5050991;28;20045;-56
2023/03/24 05:22:57;;;;;;;13.60;2.58;;;;;;;9.25;100.00;99797.88;5053802;28;20103;-57
2023/03/24 05:25:26;;;;;;;14.43;2.72;;;;;;;9.22;100.00;99803.38;5051995;28;20049;-57
2023/03/24 05:27:54;;;;;;;15.30;3.03;;;;;;;9.19;100.00;99803.59;5051009;28;20049;-57
2023/03/24 05:30:22;;;;;;;11.88;2.72;;;;;;;9.14;100.00;99806.56;5052915;28;20037;-57
2023/03/24 05:32:50;;;;;;;9.82;2.30;;;;;;;9.12;100.00;99810.25;5054744;28;20053;-57
2023/03/24 05:35:21;;;;;;;13.77;2.90;;;;;;;9.01;100.00;99805.81;5051882;28;20404;-58
2023/03/24 05:37:51;;;;;;;13.13;2.85;;;;;;;9.04;100.00;99808.22;5050979;28;20045;-57
2023/03/24 05:40:19;;;;;;;11.85;2.97;;;;;;;9.05;100.00;99827.41;5054370;28;20068;-57
2023/03/24 05:42:49;;;;;;;15.73;3.72;;;;;;;8.99;100.00;99838.38;5052673;28;20033;-57
2023/03/24 05:45:17;;;;;;;12.27;3.00;;;;;;;8.95;100.00;99843.81;5049816;28;20510;-57
2023/03/24 05:47:46;;;;;;;16.65;3.38;;;;;;;8.89;100.00;99843.44;5049822;28;20475;-57
2023/03/24 05:50:14;;;;;;;11.00;2.92;;;;;;;8.86;100.00;99844.53;5050259;28;20037;-57
2023/03/24 05:52:44;;;;;;;17.60;2.90;;;;;;;8.87;100.00;99851.41;5051071;28;20554;-56
2023/03/24 05:55:18;;;;;;;10.60;2.60;;;;;;;8.82;100.00;99853.56;5050927;28;20094;-56
2023/03/24 05:57:46;;;;;;;12.43;3.53;;;;;;;8.83;100.00;99849.97;5050647;28;20541;-56
2023/03/24 06:00:16;;;;;;;12.00;3.58;;;;;;;8.83;100.00;99851.78;5050418;28;20399;-56
2023/03/24 06:02:44;;;;;;;17.48;3.58;;;;;;;8.89;100.00;99853.91;5049332;28;20052;-57
2023/03/24 06:05:13;;;;;;;10.40;3.03;;;;;;;8.89;100.00;99859.16;5054086;28;20476;-56
2023/03/24 06:07:42;;;;;;;12.65;3.75;;;;;;;8.89;100.00;99864.41;5052792;28;20056;-56
2023/03/24 06:10:13;;;;;;;14.75;3.47;;;;;;;8.84;100.00;99864.75;5048485;28;20045;-57
2023/03/24 06:12:42;;;;;;;16.88;3.63;;;;;;;8.87;100.00;99872.41;5050108;28;20064;-57
2023/03/24 06:15:16;;;;;;;16.58;3.42;;;;;;;8.96;100.00;99873.53;5050095;28;20049;-56
2023/03/24 06:17:45;;;;;;;10.82;3.17;;;;;;;8.92;100.00;99875.53;5053601;28;20567;-57
2023/03/24 06:20:16;;;;;;;15.00;4.03;;;;;;;8.91;100.00;99871.22;5054106;28;20057;-56
2023/03/24 06:22:47;;;;;;;9.52;3.35;;;;;;;8.95;100.00;99875.28;5053695;28;20045;-57
2023/03/24 06:25:16;;;;;;;17.63;4.28;;;;;;;8.96;100.00;99879.59;5053837;28;20072;-57
2023/03/24 06:27:46;;;;;;;14.43;3.80;;;;;;;8.98;100.00;99881.28;5053532;28;20068;-57
2023/03/24 06:30:18;;;;;;;14.52;3.42;;;;;;;9.05;100.00;99885.09;5053859;28;20041;-57
2023/03/24 06:32:46;;;;;;;15.60;3.30;;;;;;;9.14;100.00;99887.06;5053538;28;20053;-57
2023/03/24 06:35:15;;;;;;;14.68;3.60;;;;;;;9.12;100.00;99888.94;5053517;28;20224;-57
2023/03/24 06:37:44;;;;;;;16.83;3.53;;;;;;;9.13;100.00;99891.47;5050460;28;20045;-57
2023/03/24 06:40:15;;;;;;;13.77;3.28;;;;;;;9.13;100.00;99903.72;5049971;28;20109;-57
2023/03/24 06:42:43;;;;;;;9.68;2.65;;;;;;;9.13;100.00;99899.34;5052183;28;20051;-57
2023/03/24 06:45:12;;;;;;;15.05;3.75;;;;;;;9.19;100.00;99902.44;5049244;28;20436;-57
2023/03/24 06:47:43;;;;;;;10.43;3.63;;;;;;;9.24;100.00;99906.41;5048776;28;20158;-57
2023/03/24 06:50:11;;;;;;;17.25;3.75;;;;;;;9.27;100.00;99906.19;5049551;28;20596;-57
2023/03/24 06:52:40;;;;;;;16.95;3.90;;;;;;;9.26;100.00;99908.91;5052160;28;20065;-57
2023/03/24 06:55:09;;;;;;;14.35;3.25;;;;;;;9.31;100.00;99919.88;5053134;28;20055;-57
2023/03/24 06:57:40;;;;;;;17.95;4.13;;;;;;;9.32;100.00;99918.13;5053056;28;20067;-57
2023/03/24 07:00:10;;;;;;;15.95;3.78;;;;;;;9.31;100.00;99914.63;5050645;28;20052;-57
2023/03/24 07:02:41;;;;;;;15.18;3.42;;;;;;;9.32;100.00;99918.13;5048319;28;20044;-57
2023/03/24 07:05:09;;;;;;;12.13;3.47;;;;;;;9.40;100.00;99918.38;5048981;28;20401;-57
2023/03/24 07:07:41;;;;;;;12.88;3.80;;;;;;;9.49;100.00;99925.56;5052796;28;20120;-57
2023/03/24 07:10:13;;;;;;;15.10;3.47;;;;;;;9.46;100.00;99924.00;5051703;28;20140;-56
2023/03/24 07:12:41;;;;;;;12.80;3.80;;;;;;;9.52;100.00;99927.13;5049638;28;20106;-56
2023/03/24 07:15:10;;;;;;;14.02;3.78;;;;;;;9.57;100.00;99927.59;5048658;28;20045;-56
2023/03/24 07:17:41;;;;;;;9.55;3.05;;;;;;;9.59;100.00;99934.41;5048706;28;20501;-56
2023/03/24 07:20:09;;;;;;;11.68;3.13;;;;;;;9.62;100.00;99939.41;5051557;28;20036;-57
2023/03/24 07:22:38;;;;;;;13.40;3.95;;;;;;;9.64;100.00;99924.41;5048696;28;20045;-56
2023/03/24 07:25:06;;;;;;;14.43;3.58;;;;;;;9.70;100.00;99927.53;5049134;28;20705;-57
2023/03/24 07:27:36;;;;;;;11.45;3.17;;;;;;;9.75;100.00;99947.22;5051076;28;20528;-56
2023/03/24 07:30:09;;;;;;;13.18;3.10;;;;;;;9.84;100.00;99943.03;5052284;28;20540;-56
2023/03/24 07:32:38;;;;;;;11.70;2.58;;;;;;;9.92;100.00;99942.47;5052269;28;20123;-56
2023/03/24 07:35:10;;;;;;;12.38;2.90;;;;;;;9.96;100.00;99943.91;5052379;28;20036;-57
2023/03/24 07:37:39;;;;;;;11.20;2.75;;;;;;;10.03;100.00;99954.78;5051016;28;20060;-57
2023/03/24 07:40:10;;;;;;;14.30;3.42;;;;;;;10.17;100.00;99946.69;5046913;28;20057;-56
2023/03/24 07:42:40;;;;;;;14.93;4.10;;;;;;;10.14;100.00;99947.75;5048400;28;20045;-56
2023/03/24 07:45:10;;;;;;;13.82;3.17;;;;;;;10.22;100.00;99954.19;5048126;28;20534;-56
2023/03/24 07:47:39;;;;;;;10.50;2.90;;;;;;;10.23;100.00;99946.19;5049482;28;20384;-56
2023/03/24 07:50:10;;;;;;;13.23;2.58;;;;;;;10.35;100.00;99951.47;5052105;28;20499;-56
2023/03/24 07:52:38;;;;;;;13.65;3.72;;;;;;;10.41;100.00;99938.69;5052165;28;20041;-57
2023/03/24 07:55:11;;;;;;;14.65;3.20;;;;;;;10.43;100.00;99946.44;5050728;28;20041;-57
2023/03/24 07:57:41;;;;;;;11.15;3.42;;;;;;;10.40;100.00;99941.44;5052080;28;20053;-57
2023/03/24 08:00:14;;;;;;;11.52;3.35;;;;;;;10.43;100.00;99928.91;5052296;28;20049;-56
2023/03/24 08:02:43;;;;;;;13.75;3.65;;;;;;;10.44;100.00;99948.13;5052061;28;20919;-57
2023/03/24 08:05:13;;;;;;;13.73;2.83;;;;;;;10.53;100.00;99947.41;5052008;28;20041;-57
2023/03/24 08:07:42;;;;;;;10.07;2.47;;;;;;;10.67;100.00;99954.19;5051993;28;20074;-57
2023/03/24 08:10:11;;;;;;;13.63;2.83;;;;;;;10.76;100.00;99953.47;5051973;28;20102;-56
2023/03/24 08:12:40;;;;;;;11.38;2.90;;;;;;;10.87;100.00;99955.22;5052242;28;20045;-57
2023/03/24 08:15:09;;;;;;;14.65;2.70;;;;;;;11.00;100.00;99955.06;5052059;28;20103;-57
2023/03/24 08:17:37;;;;;;;11.63;2.20;;;;;;;11.19;100.00;99950.94;5051736;28;20135;-57
2023/03/24 08:20:11;;;;;;;11.98;2.92;;;;;;;11.24;100.00;99957.50;5051854;28;20051;-57
2023/03/24 08:22:42;;;;;;;13.40;2.83;;;;;;;11.34;100.00;99965.47;5052072;28;20037;-58
2023/03/24 08:25:11;;;;;;;11.60;2.47;;;;;;;11.55;100.00;99964.66;5048631;28;20048;-57
2023/03/24 08:27:42;;;;;;;10.88;3.45;;;;;;;11.65;100.00;99958.47;5049746;28;20041;-57
2023/03/24 08:30:13;;;;;;;14.88;2.70;;;;;;;11.58;100.00;99973.13;5048749;28;20444;-57
2023/03/24 08:32:44;;;;;;;11.45;3.03;;;;;;;11.58;100.00;99972.31;5048376;28;20153;-57
2023/03/24 08:35:18;;;;;;;11.90;2.63;;;;;;;11.57;100.00;99971.47;5050381;28;20057;-57
2023/03/24 08:37:48;;;;;;;13.18;3.15;;;;;;;11.67;100.00;99974.19;5053628;28;20040;-57
2023/03/24 08:40:19;;;;;;;10.07;2.55;;;;;;;11.70;100.00;99975.69;5054147;28;20044;-57
2023/03/24 08:42:48;;;;;;;14.30;2.85;;;;;;;11.69;100.00;99981.94;5055453;28;20507;-57
2023/03/24 08:45:19;;;;;;;13.93;2.67;;;;;;;11.73;100.00;99992.09;5052076;28;20699;-57
2023/03/24 08:47:49;;;;;;;11.77;2.63;;;;;;;11.73;100.00;99991.28;5051090;28;20069;-57
2023/03/24 08:50:18;;;;;;;12.65;2.53;;;;;;;11.79;100.00;99993.38;5051559;28;20416;-57
2023/03/24 08:52:48;;;;;;;13.25;3.00;;;;;;;11.72;100.00;99997.50;5053252;28;20095;-57
2023/03/24 08:55:20;;;;;;;11.00;2.85;;;;;;;11.80;100.00;100002.94;5055504;28;20099;-57
2023/03/24 08:57:49;;;;;;;11.82;2.80;;;;;;;11.96;100.00;100005.19;5050736;28;20059;-57
2023/03/24 09:00:19;;;;;;;12.98;3.15;;;;;;;11.96;100.00;100002.53;5050988;28;20052;-57
2023/03/24 09:02:50;;;;;;;12.27;3.53;;;;;;;12.08;100.00;100008.56;5052195;28;20041;-57
2023/03/24 09:05:19;;;;;;;9.43;2.40;;;;;;;12.26;100.00;100004.38;5055020;28;20131;-57
2023/03/24 09:08:06;;;;;;;13.88;3.38;;;;;;;12.48;100.00;100005.97;5053914;28;20064;-57
2023/03/24 09:10:35;;;;;;;13.35;2.95;;;;;;;12.64;100.00;100010.78;5054764;28;20079;-57
2023/03/24 09:13:04;;;;;;;12.20;2.88;;;;;;;12.91;100.00;100011.13;5055153;28;20514;-57
2023/03/24 09:15:32;;;;;;;10.95;2.75;;;;;;;13.00;100.00;100010.31;5055082;28;20083;-58
2023/03/24 09:18:02;;;;;;;9.52;2.50;;;;;;;13.15;100.00;100002.84;5055043;28;20037;-57
2023/03/24 09:20:30;;;;;;;12.75;3.45;;;;;;;13.42;100.00;100014.56;5052285;28;20094;-58
2023/03/24 09:22:59;;;;;;;13.15;3.45;;;;;;;13.55;100.00;100012.47;5051121;28;20045;-57
2023/03/24 09:25:28;;;;;;;11.60;2.70;;;;;;;13.63;100.00;100004.69;5055071;28;20056;-58
2023/03/24 09:27:56;;;;;;;11.43;2.80;;;;;;;13.67;100.00;100008.72;5054849;28;20059;-58
2023/03/24 09:30:24;;;;;;;10.90;2.33;;;;;;;13.69;100.00;100011.22;5054757;28;20167;-58
2023/03/24 09:32:53;;;;;;;11.43;2.38;;;;;;;13.45;100.00;100016.94;5054710;28;20392;-58
2023/03/24 09:35:21;;;;;;;8.65;2.33;;;;;;;13.40;100.00;100016.50;5054679;28;20078;-58
2023/03/24 09:37:49;;;;;;;11.85;2.22;;;;;;;13.40;100.00;100021.78;5054512;28;20041;-57
2023/03/24 09:40:21;;;;;;;12.98;2.75;;;;;;;13.35;100.00;100027.47;5054509;28;20567;-57
2023/03/24 09:42:57;;;;;;;10.88;2.22;;;;;;;13.32;100.00;100030.34;5054516;28;20048;-58
2023/03/24 09:45:28;;;;;;;10.40;2.75;;;;;;;13.12;100.00;100024.22;5053593;28;20053;-57
2023/03/24 09:48:01;;;;;;;11.43;2.38;;;;;;;13.24;100.00;100035.47;5054583;28;20564;-57
2023/03/24 09:50:34;;;;;;;8.68;2.28;;;;;;;13.21;100.00;100036.63;5053688;28;20113;-57
2023/03/24 09:53:09;;;;;;;10.20;1.95;;;;;;;13.31;100.00;100040.09;5050341;28;20053;-57
2023/03/24 09:55:41;;;;;;;10.13;2.30;;;;;;;13.64;100.00;100031.94;5050904;28;20358;-57
2023/03/24 09:58:12;;;;;;;10.35;2.28;;;;;;;13.62;100.00;100034.72;5050673;28;20087;-58
2023/03/24 10:00:42;;;;;;;11.68;2.72;;;;;;;13.69;100.00;100027.06;5053386;28;20405;-57
2023/03/24 10:03:18;;;;;;;8.50;2.20;;;;;;;13.90;100.00;100037.47;5053501;28;20040;-58
2023/03/24 10:05:54;;;;;;;8.63;1.92;;;;;;;13.96;100.00;100042.22;5053518;28;20045;-57
2023/03/24 10:08:30;;;;;;;10.15;1.95;;;;;;;14.00;100.00;100042.75;5053886;28;20068;-57
2023/03/24 10:11:03;;;;;;;12.00;2.25;;;;;;;13.69;100.00;100038.47;5053951;28;20060;-57
2023/03/24 10:13:45;;;;;;;11.35;2.20;;;;;;;13.64;100.00;100042.50;5051828;28;20041;-57
2023/03/24 10:16:19;;;;;;;11.95;2.40;;;;;;;13.64;100.00;100050.44;5049851;28;20053;-57
2023/03/24 10:18:56;;;;;;;7.07;2.58;;;;;;;13.27;100.00;100057.19;5049573;28;20056;-57
2023/03/24 10:21:27;;;;;;;12.20;2.45;;;;;;;13.42;100.00;100051.53;5050415;28;20047;-57
2023/03/24 10:24:05;;;;;;;9.35;2.50;;;;;;;13.50;100.00;100049.03;5053882;28;20527;-57
2023/03/24 10:26:42;;;;;;;11.00;2.45;;;;;;;13.77;100.00;100047.50;5053587;28;20109;-57
2023/03/24 10:29:27;;;;;;;9.95;2.30;;;;;;;13.81;100.00;100056.81;5053845;28;20110;-57
2023/03/24 10:32:00;;;;;;;9.15;2.30;;;;;;;13.99;100.00;100060.44;5053495;28;20056;-57
2023/03/24 10:34:32;;;;;;;11.73;2.67;;;;;;;13.84;100.00;100064.47;5053590;28;20519;-57
2023/03/24 10:37:03;;;;;;;9.55;2.00;;;;;;;13.78;100.00;100062.38;5053660;28;20520;-58
2023/03/24 10:39:32;;;;;;;8.30;1.85;;;;;;;14.10;100.00;100071.84;5053229;28;20110;-57
2023/03/24 10:42:18;;;;;;;9.35;1.88;;;;;;;14.38;100.00;100064.78;5051775;28;20053;-57
2023/03/24 10:44:50;;;;;;;13.48;2.50;;;;;;;14.74;100.00;100074.72;5051365;28;20049;-57
2023/03/24 10:47:24;;;;;;;9.52;1.92;;;;;;;14.99;100.00;100076.69;5049142;28;20052;-56
2023/03/24 10:49:55;;;;;;;10.88;2.03;;;;;;;15.18;100.00;100073.09;5050860;28;20049;-56
2023/03/24 10:52:24;;;;;;;12.90;2.10;;;;;;;14.78;100.00;100070.81;5052923;28;20040;-56
2023/03/24 10:54:57;;;;;;;8.95;2.17;;;;;;;14.45;100.00;100060.63;5049642;28;20071;-57
2023/03/24 10:57:28;;;;;;;10.65;2.03;;;;;;;14.19;100.00;100061.22;5050806;28;20056;-56
2023/03/24 11:00:09;;;;;;;9.50;2.10;;;;;;;14.09;100.00;100070.16;5053043;28;20041;-56
2023/03/24 11:02:37;;;;;;;13.07;1.70;;;;;;;13.85;100.00;100077.56;5052968;28;20041;-57
2023/03/24 11:05:16;;;;;;;12.77;2.15;;;;;;;13.76;100.00;100080.22;5052987;28;20045;-56
2023/03/24 11:07:46;;;;;;;10.90;2.00;;;;;;;13.49;100.00;100085.19;5053098;28;20044;-56
2023/03/24 11:10:17;;;;;;;10.50;2.30;;;;;;;13.23;100.00;100081.38;5052619;28;20492;-57
2023/03/24 11:13:01;;;;;;;9.65;2.22;;;;;;;13.51;100.00;100082.38;5052732;28;20052;-57
2023/03/24 11:15:32;;;;;;;9.40;2.50;;;;;;;13.59;100.00;100079.91;5052512;28;20044;-57
2023/03/24 11:18:08;;;;;;;13.60;2.60;;;;;;;13.51;100.00;100080.59;5052464;28;20049;-57
2023/03/24 11:20:38;;;;;;;8.18;1.98;;;;;;;13.46;100.00;100077.53;5052769;28;20127;-57
2023/03/24 11:23:11;;;;;;;5.40;1.52;;;;;;;13.53;100.00;100076.00;5052700;28;20033;-57
2023/03/24 11:25:40;;;;;;;9.68;1.88;;;;;;;13.61;100.00;100087.72;5052505;28;20049;-57
2023/03/24 11:28:16;;;;;;;8.95;2.20;;;;;;;13.68;100.00;100089.63;5049170;28;20128;-57
2023/03/24 11:30:48;;;;;;;8.27;1.90;;;;;;;13.58;100.00;100094.09;5046742;28;20139;-57
2023/03/24 11:33:21;;;;;;;10.98;2.08;;;;;;;13.57;100.00;100092.41;5047751;28;20415;-57
2023/03/24 11:36:09;;;;;;;8.32;1.50;;;;;;;13.29;100.00;100102.78;5048945;28;20087;-57
2023/03/24 11:38:39;;;;;;;5.32;1.20;;;;;;;13.16;100.00;100103.00;5052183;28;20057;-57
2023/03/24 11:41:21;;;;;;;6.15;1.30;;;;;;;12.99;100.00;100106.28;5051377;28;20179;-57
2023/03/24 11:43:49;;;;;;;5.82;1.10;;;;;;;12.76;100.00;100106.50;5048559;28;20092;-57
2023/03/24 11:46:22;;;;;;;5.00;1.23;;;;;;;12.89;100.00;100097.50;5051005;28;20053;-57